sensor_id;sensor_type;location;lat;lon;timestamp;temperature;humidity
17092;DHT22;8661;45.700;4.880;2022-08-03T00:00:59;24.10;72.90
17092;DHT22;8661;45.700;4.880;2022-08-03T00:03:26;24.00;73.20
17092;DHT22;8661;45.700;4.880;2022-08-03T00:05:53;23.90;73.60
17092;DHT22;8661;45.700;4.880;2022-08-03T00:08:20;23.90;73.90
17092;DHT22;8661;45.700;4.880;2022-08-03T00:10:47;23.80;74.20
17092;DHT22;8661;45.700;4.880;2022-08-03T00:13:15;23.70;74.50
17092;DHT22;8661;45.700;4.880;2022-08-03T00:15:44;23.70;74.70
17092;DHT22;8661;45.700;4.880;2022-08-03T00:18:11;23.70;74.90
17092;DHT22;8661;45.700;4.880;2022-08-03T00:20:38;23.70;75.00
17092;DHT22;8661;45.700;4.880;2022-08-03T00:23:05;23.70;75.10
17092;DHT22;8661;45.700;4.880;2022-08-03T00:25:33;23.70;75.20
17092;DHT22;8661;45.700;4.880;2022-08-03T00:28:00;23.70;75.20
17092;DHT22;8661;45.700;4.880;2022-08-03T00:30:28;23.60;75.30
17092;DHT22;8661;45.700;4.880;2022-08-03T00:32:55;23.60;75.50
17092;DHT22;8661;45.700;4.880;2022-08-03T00:35:22;23.60;75.60
17092;DHT22;8661;45.700;4.880;2022-08-03T00:37:50;23.50;75.70
17092;DHT22;8661;45.700;4.880;2022-08-03T00:40:18;23.40;75.70
17092;DHT22;8661;45.700;4.880;2022-08-03T00:42:46;23.40;76.10
17092;DHT22;8661;45.700;4.880;2022-08-03T00:45:15;23.40;76.80
17092;DHT22;8661;45.700;4.880;2022-08-03T00:47:44;23.30;77.20
17092;DHT22;8661;45.700;4.880;2022-08-03T00:50:11;23.20;77.50
17092;DHT22;8661;45.700;4.880;2022-08-03T00:52:38;23.10;77.60
17092;DHT22;8661;45.700;4.880;2022-08-03T00:55:06;23.00;77.90
17092;DHT22;8661;45.700;4.880;2022-08-03T00:57:33;22.90;78.00
17092;DHT22;8661;45.700;4.880;2022-08-03T01:00:01;22.90;78.20
17092;DHT22;8661;45.700;4.880;2022-08-03T01:02:28;22.80;78.80
17092;DHT22;8661;45.700;4.880;2022-08-03T01:04:56;22.70;79.20
17092;DHT22;8661;45.700;4.880;2022-08-03T01:07:29;22.60;79.40
17092;DHT22;8661;45.700;4.880;2022-08-03T01:10:02;22.60;79.60
17092;DHT22;8661;45.700;4.880;2022-08-03T01:12:35;22.60;79.50
17092;DHT22;8661;45.700;4.880;2022-08-03T01:15:09;22.60;79.30
17092;DHT22;8661;45.700;4.880;2022-08-03T01:17:45;22.60;79.20
17092;DHT22;8661;45.700;4.880;2022-08-03T01:20:19;22.60;79.40
17092;DHT22;8661;45.700;4.880;2022-08-03T01:25:54;22.50;80.00
17092;DHT22;8661;45.700;4.880;2022-08-03T01:28:38;22.50;80.10
17092;DHT22;8661;45.700;4.880;2022-08-03T01:31:10;22.50;80.30
17092;DHT22;8661;45.700;4.880;2022-08-03T01:33:42;22.50;80.30
17092;DHT22;8661;45.700;4.880;2022-08-03T01:36:13;22.50;80.30
17092;DHT22;8661;45.700;4.880;2022-08-03T01:38:42;22.40;80.40
17092;DHT22;8661;45.700;4.880;2022-08-03T01:41:12;22.40;80.10
17092;DHT22;8661;45.700;4.880;2022-08-03T01:43:43;22.40;80.10
17092;DHT22;8661;45.700;4.880;2022-08-03T01:46:15;22.40;80.40
17092;DHT22;8661;45.700;4.880;2022-08-03T01:48:44;22.40;80.30
17092;DHT22;8661;45.700;4.880;2022-08-03T01:51:13;22.40;80.00
17092;DHT22;8661;45.700;4.880;2022-08-03T01:53:41;22.40;79.80
17092;DHT22;8661;45.700;4.880;2022-08-03T01:56:09;22.40;80.10
17092;DHT22;8661;45.700;4.880;2022-08-03T01:58:37;22.40;80.30
17092;DHT22;8661;45.700;4.880;2022-08-03T02:01:07;22.40;80.30
17092;DHT22;8661;45.700;4.880;2022-08-03T02:03:37;22.40;80.50
17092;DHT22;8661;45.700;4.880;2022-08-03T02:06:06;22.40;80.90
17092;DHT22;8661;45.700;4.880;2022-08-03T02:08:34;22.40;81.50
17092;DHT22;8661;45.700;4.880;2022-08-03T02:11:03;22.50;81.10
17092;DHT22;8661;45.700;4.880;2022-08-03T02:13:32;22.40;81.00
17092;DHT22;8661;45.700;4.880;2022-08-03T02:16:02;22.40;81.10
17092;DHT22;8661;45.700;4.880;2022-08-03T02:18:30;22.30;81.20
17092;DHT22;8661;45.700;4.880;2022-08-03T02:21:00;22.20;81.60
17092;DHT22;8661;45.700;4.880;2022-08-03T02:23:27;22.10;82.00
17092;DHT22;8661;45.700;4.880;2022-08-03T02:25:57;22.00;82.40
17092;DHT22;8661;45.700;4.880;2022-08-03T02:28:28;22.00;82.90
17092;DHT22;8661;45.700;4.880;2022-08-03T02:30:57;22.00;82.90
17092;DHT22;8661;45.700;4.880;2022-08-03T02:33:31;21.90;82.90
17092;DHT22;8661;45.700;4.880;2022-08-03T02:36:01;22.00;83.00
17092;DHT22;8661;45.700;4.880;2022-08-03T02:38:32;21.90;83.20
17092;DHT22;8661;45.700;4.880;2022-08-03T02:41:00;21.90;83.20
17092;DHT22;8661;45.700;4.880;2022-08-03T02:43:31;21.80;83.30
17092;DHT22;8661;45.700;4.880;2022-08-03T02:46:00;21.80;83.40
17092;DHT22;8661;45.700;4.880;2022-08-03T02:48:29;21.70;83.60
17092;DHT22;8661;45.700;4.880;2022-08-03T02:51:00;21.60;83.90
17092;DHT22;8661;45.700;4.880;2022-08-03T02:53:29;21.60;83.90
17092;DHT22;8661;45.700;4.880;2022-08-03T02:55:58;21.60;83.80
17092;DHT22;8661;45.700;4.880;2022-08-03T02:58:26;21.60;83.70
17092;DHT22;8661;45.700;4.880;2022-08-03T03:00:57;21.60;83.70
17092;DHT22;8661;45.700;4.880;2022-08-03T03:03:25;21.60;83.90
17092;DHT22;8661;45.700;4.880;2022-08-03T03:05:52;21.60;84.10
17092;DHT22;8661;45.700;4.880;2022-08-03T03:08:22;21.50;84.30
17092;DHT22;8661;45.700;4.880;2022-08-03T03:10:50;21.50;84.70
17092;DHT22;8661;45.700;4.880;2022-08-03T03:13:18;21.50;84.70
17092;DHT22;8661;45.700;4.880;2022-08-03T03:15:46;21.40;84.90
17092;DHT22;8661;45.700;4.880;2022-08-03T03:18:16;21.40;85.30
17092;DHT22;8661;45.700;4.880;2022-08-03T03:20:44;21.40;85.50
17092;DHT22;8661;45.700;4.880;2022-08-03T03:23:12;21.40;86.70
17092;DHT22;8661;45.700;4.880;2022-08-03T03:25:42;21.30;85.70
17092;DHT22;8661;45.700;4.880;2022-08-03T03:28:09;21.30;86.10
17092;DHT22;8661;45.700;4.880;2022-08-03T03:30:37;21.20;86.50
17092;DHT22;8661;45.700;4.880;2022-08-03T03:33:04;21.20;86.80
17092;DHT22;8661;45.700;4.880;2022-08-03T03:35:32;21.10;87.10
17092;DHT22;8661;45.700;4.880;2022-08-03T03:37:59;21.10;87.30
17092;DHT22;8661;45.700;4.880;2022-08-03T03:40:26;21.10;87.50
17092;DHT22;8661;45.700;4.880;2022-08-03T03:42:54;21.10;87.80
17092;DHT22;8661;45.700;4.880;2022-08-03T03:45:25;21.10;87.80
17092;DHT22;8661;45.700;4.880;2022-08-03T03:47:53;21.10;88.20
17092;DHT22;8661;45.700;4.880;2022-08-03T03:50:21;21.10;88.40
17092;DHT22;8661;45.700;4.880;2022-08-03T03:52:48;21.10;88.50
17092;DHT22;8661;45.700;4.880;2022-08-03T03:55:16;21.10;89.60
17092;DHT22;8661;45.700;4.880;2022-08-03T03:57:44;21.00;88.90
17092;DHT22;8661;45.700;4.880;2022-08-03T04:00:15;21.00;89.50
17092;DHT22;8661;45.700;4.880;2022-08-03T04:02:43;21.00;89.90
17092;DHT22;8661;45.700;4.880;2022-08-03T04:05:10;21.00;90.10
17092;DHT22;8661;45.700;4.880;2022-08-03T04:07:57;21.00;90.20
17092;DHT22;8661;45.700;4.880;2022-08-03T04:10:45;21.00;90.40
17092;DHT22;8661;45.700;4.880;2022-08-03T04:13:28;21.00;90.50
17092;DHT22;8661;45.700;4.880;2022-08-03T04:15:57;21.00;90.60
17092;DHT22;8661;45.700;4.880;2022-08-03T04:18:27;20.90;90.70
17092;DHT22;8661;45.700;4.880;2022-08-03T04:20:56;20.90;90.90
17092;DHT22;8661;45.700;4.880;2022-08-03T04:23:26;20.90;91.10
17092;DHT22;8661;45.700;4.880;2022-08-03T04:25:55;21.00;91.10
17092;DHT22;8661;45.700;4.880;2022-08-03T04:28:23;20.90;91.10
17092;DHT22;8661;45.700;4.880;2022-08-03T04:30:52;20.90;91.20
17092;DHT22;8661;45.700;4.880;2022-08-03T04:33:21;20.90;91.20
17092;DHT22;8661;45.700;4.880;2022-08-03T04:35:50;20.90;91.20
17092;DHT22;8661;45.700;4.880;2022-08-03T04:38:19;20.90;91.30
17092;DHT22;8661;45.700;4.880;2022-08-03T04:40:47;20.80;91.50
17092;DHT22;8661;45.700;4.880;2022-08-03T04:43:16;20.70;91.70
17092;DHT22;8661;45.700;4.880;2022-08-03T04:45:46;20.60;91.80
17092;DHT22;8661;45.700;4.880;2022-08-03T04:48:13;20.50;92.00
17092;DHT22;8661;45.700;4.880;2022-08-03T04:50:42;20.40;92.70
17092;DHT22;8661;45.700;4.880;2022-08-03T04:53:10;20.40;92.40
17092;DHT22;8661;45.700;4.880;2022-08-03T04:55:37;20.40;92.30
17092;DHT22;8661;45.700;4.880;2022-08-03T04:58:04;20.50;92.40
17092;DHT22;8661;45.700;4.880;2022-08-03T05:00:31;20.50;92.40
17092;DHT22;8661;45.700;4.880;2022-08-03T05:02:58;20.60;92.10
17092;DHT22;8661;45.700;4.880;2022-08-03T05:05:25;20.70;92.10
17092;DHT22;8661;45.700;4.880;2022-08-03T05:07:53;20.70;92.10
17092;DHT22;8661;45.700;4.880;2022-08-03T05:10:20;20.70;92.20
17092;DHT22;8661;45.700;4.880;2022-08-03T05:12:48;20.70;92.50
17092;DHT22;8661;45.700;4.880;2022-08-03T05:15:16;20.70;92.40
17092;DHT22;8661;45.700;4.880;2022-08-03T05:17:43;20.70;92.40
17092;DHT22;8661;45.700;4.880;2022-08-03T05:20:10;20.80;92.40
17092;DHT22;8661;45.700;4.880;2022-08-03T05:22:37;20.80;92.60
17092;DHT22;8661;45.700;4.880;2022-08-03T05:25:06;20.90;92.50
17092;DHT22;8661;45.700;4.880;2022-08-03T05:27:33;21.10;92.40
17092;DHT22;8661;45.700;4.880;2022-08-03T05:30:00;21.30;92.20
17092;DHT22;8661;45.700;4.880;2022-08-03T05:32:27;21.50;91.70
17092;DHT22;8661;45.700;4.880;2022-08-03T05:34:54;21.70;91.20
17092;DHT22;8661;45.700;4.880;2022-08-03T05:37:21;22.00;90.70
17092;DHT22;8661;45.700;4.880;2022-08-03T05:39:48;22.30;90.30
17092;DHT22;8661;45.700;4.880;2022-08-03T05:42:16;22.60;90.10
17092;DHT22;8661;45.700;4.880;2022-08-03T05:44:43;23.00;89.00
17092;DHT22;8661;45.700;4.880;2022-08-03T05:47:10;23.30;87.90
17092;DHT22;8661;45.700;4.880;2022-08-03T05:49:37;23.50;87.20
17092;DHT22;8661;45.700;4.880;2022-08-03T05:52:04;23.80;86.60
17092;DHT22;8661;45.700;4.880;2022-08-03T05:54:31;24.10;85.40
17092;DHT22;8661;45.700;4.880;2022-08-03T05:56:58;24.40;84.40
17092;DHT22;8661;45.700;4.880;2022-08-03T05:59:29;24.60;83.40
17092;DHT22;8661;45.700;4.880;2022-08-03T06:01:56;24.90;82.30
17092;DHT22;8661;45.700;4.880;2022-08-03T06:04:22;25.00;80.40
17092;DHT22;8661;45.700;4.880;2022-08-03T06:06:49;25.10;79.30
17092;DHT22;8661;45.700;4.880;2022-08-03T06:09:16;25.40;78.80
17092;DHT22;8661;45.700;4.880;2022-08-03T06:11:43;25.50;77.70
17092;DHT22;8661;45.700;4.880;2022-08-03T06:14:10;25.70;77.00
17092;DHT22;8661;45.700;4.880;2022-08-03T06:16:38;25.90;76.70
17092;DHT22;8661;45.700;4.880;2022-08-03T06:19:05;26.10;76.30
17092;DHT22;8661;45.700;4.880;2022-08-03T06:21:33;26.30;75.30
17092;DHT22;8661;45.700;4.880;2022-08-03T06:24:00;26.50;74.50
17092;DHT22;8661;45.700;4.880;2022-08-03T06:26:27;26.60;73.90
17092;DHT22;8661;45.700;4.880;2022-08-03T06:28:54;26.80;73.10
17092;DHT22;8661;45.700;4.880;2022-08-03T06:31:22;27.00;71.90
17092;DHT22;8661;45.700;4.880;2022-08-03T06:33:51;27.20;71.10
17092;DHT22;8661;45.700;4.880;2022-08-03T06:36:18;27.40;70.60
17092;DHT22;8661;45.700;4.880;2022-08-03T06:38:46;27.60;70.30
17092;DHT22;8661;45.700;4.880;2022-08-03T06:41:12;27.90;69.80
17092;DHT22;8661;45.700;4.880;2022-08-03T06:43:39;28.20;69.00
17092;DHT22;8661;45.700;4.880;2022-08-03T06:46:07;28.40;68.20
17092;DHT22;8661;45.700;4.880;2022-08-03T06:48:35;28.60;67.30
17092;DHT22;8661;45.700;4.880;2022-08-03T06:51:03;28.80;66.40
17092;DHT22;8661;45.700;4.880;2022-08-03T06:53:30;29.10;65.90
17092;DHT22;8661;45.700;4.880;2022-08-03T06:55:57;29.40;64.90
17092;DHT22;8661;45.700;4.880;2022-08-03T06:58:24;29.50;64.60
17092;DHT22;8661;45.700;4.880;2022-08-03T07:00:51;29.50;64.50
17092;DHT22;8661;45.700;4.880;2022-08-03T07:03:18;29.90;63.80
17092;DHT22;8661;45.700;4.880;2022-08-03T07:05:45;30.20;62.70
17092;DHT22;8661;45.700;4.880;2022-08-03T07:08:14;30.40;61.70
17092;DHT22;8661;45.700;4.880;2022-08-03T07:10:41;30.70;60.70
17092;DHT22;8661;45.700;4.880;2022-08-03T07:13:08;31.00;59.80
17092;DHT22;8661;45.700;4.880;2022-08-03T07:15:35;31.20;59.30
17092;DHT22;8661;45.700;4.880;2022-08-03T07:18:02;31.40;58.80
17092;DHT22;8661;45.700;4.880;2022-08-03T07:20:31;31.70;58.00
17092;DHT22;8661;45.700;4.880;2022-08-03T07:22:58;31.90;57.40
17092;DHT22;8661;45.700;4.880;2022-08-03T07:25:27;32.20;56.90
17092;DHT22;8661;45.700;4.880;2022-08-03T07:27:57;32.40;56.10
17092;DHT22;8661;45.700;4.880;2022-08-03T07:30:24;32.70;55.30
17092;DHT22;8661;45.700;4.880;2022-08-03T07:32:52;33.20;55.00
17092;DHT22;8661;45.700;4.880;2022-08-03T07:35:19;33.40;54.50
17092;DHT22;8661;45.700;4.880;2022-08-03T07:37:47;33.30;54.70
17092;DHT22;8661;45.700;4.880;2022-08-03T07:40:14;33.30;55.00
17092;DHT22;8661;45.700;4.880;2022-08-03T07:42:44;33.10;55.30
17092;DHT22;8661;45.700;4.880;2022-08-03T07:45:11;33.40;55.20
17092;DHT22;8661;45.700;4.880;2022-08-03T07:47:38;33.80;54.80
17092;DHT22;8661;45.700;4.880;2022-08-03T07:50:06;34.00;54.30
17092;DHT22;8661;45.700;4.880;2022-08-03T07:52:33;34.20;53.60
17092;DHT22;8661;45.700;4.880;2022-08-03T07:55:16;34.50;53.00
17092;DHT22;8661;45.700;4.880;2022-08-03T07:57:45;34.60;52.50
17092;DHT22;8661;45.700;4.880;2022-08-03T08:00:14;34.70;52.20
17092;DHT22;8661;45.700;4.880;2022-08-03T08:02:42;34.70;52.30
17092;DHT22;8661;45.700;4.880;2022-08-03T08:05:09;34.80;52.20
17092;DHT22;8661;45.700;4.880;2022-08-03T08:07:37;35.20;52.00
17092;DHT22;8661;45.700;4.880;2022-08-03T08:10:05;35.30;52.00
17092;DHT22;8661;45.700;4.880;2022-08-03T08:12:32;35.60;52.20
17092;DHT22;8661;45.700;4.880;2022-08-03T08:15:01;36.00;50.90
17092;DHT22;8661;45.700;4.880;2022-08-03T08:17:27;36.30;50.20
17092;DHT22;8661;45.700;4.880;2022-08-03T08:19:54;36.50;49.90
17092;DHT22;8661;45.700;4.880;2022-08-03T08:22:22;36.60;49.00
17092;DHT22;8661;45.700;4.880;2022-08-03T08:24:49;36.80;48.40
17092;DHT22;8661;45.700;4.880;2022-08-03T08:27:16;36.90;47.90
17092;DHT22;8661;45.700;4.880;2022-08-03T08:29:43;37.10;47.80
17092;DHT22;8661;45.700;4.880;2022-08-03T08:32:11;37.40;47.70
17092;DHT22;8661;45.700;4.880;2022-08-03T08:34:40;37.80;46.60
17092;DHT22;8661;45.700;4.880;2022-08-03T08:37:07;37.70;46.30
17092;DHT22;8661;45.700;4.880;2022-08-03T08:39:34;37.60;46.30
17092;DHT22;8661;45.700;4.880;2022-08-03T08:42:01;37.80;46.70
17092;DHT22;8661;45.700;4.880;2022-08-03T08:44:28;38.10;45.80
17092;DHT22;8661;45.700;4.880;2022-08-03T08:46:56;38.30;45.70
17092;DHT22;8661;45.700;4.880;2022-08-03T08:49:29;38.30;44.70
17092;DHT22;8661;45.700;4.880;2022-08-03T08:51:58;38.50;45.10
17092;DHT22;8661;45.700;4.880;2022-08-03T08:54:27;38.60;43.90
17092;DHT22;8661;45.700;4.880;2022-08-03T08:56:56;39.00;43.10
17092;DHT22;8661;45.700;4.880;2022-08-03T08:59:24;38.90;42.60
17092;DHT22;8661;45.700;4.880;2022-08-03T09:01:56;38.50;42.90
17092;DHT22;8661;45.700;4.880;2022-08-03T09:04:24;38.70;42.50
17092;DHT22;8661;45.700;4.880;2022-08-03T09:06:52;39.00;43.20
17092;DHT22;8661;45.700;4.880;2022-08-03T09:09:20;39.20;42.70
17092;DHT22;8661;45.700;4.880;2022-08-03T09:11:48;39.10;42.60
17092;DHT22;8661;45.700;4.880;2022-08-03T09:14:17;38.90;42.60
17092;DHT22;8661;45.700;4.880;2022-08-03T09:16:58;39.20;42.20
17092;DHT22;8661;45.700;4.880;2022-08-03T09:19:27;39.90;41.70
17092;DHT22;8661;45.700;4.880;2022-08-03T09:22:11;40.50;40.80
17092;DHT22;8661;45.700;4.880;2022-08-03T09:24:53;40.70;40.00
17092;DHT22;8661;45.700;4.880;2022-08-03T09:27:22;40.90;39.50
17092;DHT22;8661;45.700;4.880;2022-08-03T09:29:50;41.00;40.40
17092;DHT22;8661;45.700;4.880;2022-08-03T09:32:19;41.00;40.00
17092;DHT22;8661;45.700;4.880;2022-08-03T09:34:47;41.30;40.10
17092;DHT22;8661;45.700;4.880;2022-08-03T09:37:18;41.40;39.90
17092;DHT22;8661;45.700;4.880;2022-08-03T09:39:47;41.50;39.70
17092;DHT22;8661;45.700;4.880;2022-08-03T09:42:15;41.40;40.10
17092;DHT22;8661;45.700;4.880;2022-08-03T09:44:44;41.60;40.80
17092;DHT22;8661;45.700;4.880;2022-08-03T09:47:13;41.40;40.10
17092;DHT22;8661;45.700;4.880;2022-08-03T09:49:41;41.80;39.80
17092;DHT22;8661;45.700;4.880;2022-08-03T09:52:29;42.30;39.40
17092;DHT22;8661;45.700;4.880;2022-08-03T09:54:58;42.60;38.00
17092;DHT22;8661;45.700;4.880;2022-08-03T09:57:27;42.70;38.60
17092;DHT22;8661;45.700;4.880;2022-08-03T10:00:06;42.50;38.60
17092;DHT22;8661;45.700;4.880;2022-08-03T10:02:35;42.80;37.40
17092;DHT22;8661;45.700;4.880;2022-08-03T10:05:03;43.20;37.40
17092;DHT22;8661;45.700;4.880;2022-08-03T10:07:41;43.40;37.20
17092;DHT22;8661;45.700;4.880;2022-08-03T10:10:08;43.30;36.60
17092;DHT22;8661;45.700;4.880;2022-08-03T10:12:36;43.10;37.30
17092;DHT22;8661;45.700;4.880;2022-08-03T10:15:04;43.40;36.90
17092;DHT22;8661;45.700;4.880;2022-08-03T10:17:31;43.80;36.70
17092;DHT22;8661;45.700;4.880;2022-08-03T10:19:58;44.10;36.30
17092;DHT22;8661;45.700;4.880;2022-08-03T10:22:28;43.80;36.00
17092;DHT22;8661;45.700;4.880;2022-08-03T10:24:59;44.30;35.40
17092;DHT22;8661;45.700;4.880;2022-08-03T10:27:32;44.20;35.40
17092;DHT22;8661;45.700;4.880;2022-08-03T10:30:01;44.00;35.70
17092;DHT22;8661;45.700;4.880;2022-08-03T10:32:33;44.60;35.30
17092;DHT22;8661;45.700;4.880;2022-08-03T10:35:04;44.70;35.50
17092;DHT22;8661;45.700;4.880;2022-08-03T10:37:33;44.90;35.20
17092;DHT22;8661;45.700;4.880;2022-08-03T10:40:06;45.00;34.60
17092;DHT22;8661;45.700;4.880;2022-08-03T10:42:34;45.50;34.20
17092;DHT22;8661;45.700;4.880;2022-08-03T10:45:05;45.50;34.00
17092;DHT22;8661;45.700;4.880;2022-08-03T10:47:33;45.00;33.70
17092;DHT22;8661;45.700;4.880;2022-08-03T10:50:01;44.60;34.50
17092;DHT22;8661;45.700;4.880;2022-08-03T10:52:28;45.00;34.60
17092;DHT22;8661;45.700;4.880;2022-08-03T10:54:55;45.20;34.20
17092;DHT22;8661;45.700;4.880;2022-08-03T10:57:48;44.80;34.30
17092;DHT22;8661;45.700;4.880;2022-08-03T11:00:18;44.70;34.40
17092;DHT22;8661;45.700;4.880;2022-08-03T11:03:03;44.70;34.80
17092;DHT22;8661;45.700;4.880;2022-08-03T11:05:32;44.60;34.90
17092;DHT22;8661;45.700;4.880;2022-08-03T11:08:20;44.80;34.80
17092;DHT22;8661;45.700;4.880;2022-08-03T11:10:48;45.20;34.40
17092;DHT22;8661;45.700;4.880;2022-08-03T11:13:19;45.50;34.70
17092;DHT22;8661;45.700;4.880;2022-08-03T11:15:51;45.60;34.70
17092;DHT22;8661;45.700;4.880;2022-08-03T11:18:18;45.80;34.10
17092;DHT22;8661;45.700;4.880;2022-08-03T11:20:49;45.50;34.20
17092;DHT22;8661;45.700;4.880;2022-08-03T11:23:19;45.20;34.30
17092;DHT22;8661;45.700;4.880;2022-08-03T11:26:11;45.10;34.80
17092;DHT22;8661;45.700;4.880;2022-08-03T11:28:40;45.60;33.80
17092;DHT22;8661;45.700;4.880;2022-08-03T11:31:45;45.60;34.20
17092;DHT22;8661;45.700;4.880;2022-08-03T11:34:14;45.50;33.90
17092;DHT22;8661;45.700;4.880;2022-08-03T11:37:18;45.60;33.90
17092;DHT22;8661;45.700;4.880;2022-08-03T11:39:48;45.40;33.60
17092;DHT22;8661;45.700;4.880;2022-08-03T11:42:40;45.70;33.90
17092;DHT22;8661;45.700;4.880;2022-08-03T11:45:11;45.60;33.80
17092;DHT22;8661;45.700;4.880;2022-08-03T11:47:40;45.30;34.80
17092;DHT22;8661;45.700;4.880;2022-08-03T11:50:07;45.40;34.60
17092;DHT22;8661;45.700;4.880;2022-08-03T11:52:39;45.20;34.40
17092;DHT22;8661;45.700;4.880;2022-08-03T11:55:13;45.50;34.50
17092;DHT22;8661;45.700;4.880;2022-08-03T11:57:41;45.60;33.80
17092;DHT22;8661;45.700;4.880;2022-08-03T12:00:23;45.60;34.90
17092;DHT22;8661;45.700;4.880;2022-08-03T12:03:01;45.90;34.00
17092;DHT22;8661;45.700;4.880;2022-08-03T12:05:47;46.00;34.00
17092;DHT22;8661;45.700;4.880;2022-08-03T12:08:16;46.20;33.00
17092;DHT22;8661;45.700;4.880;2022-08-03T12:10:49;46.30;33.20
17092;DHT22;8661;45.700;4.880;2022-08-03T12:13:17;46.60;33.40
17092;DHT22;8661;45.700;4.880;2022-08-03T12:15:50;46.30;33.20
17092;DHT22;8661;45.700;4.880;2022-08-03T12:18:19;45.90;33.40
17092;DHT22;8661;45.700;4.880;2022-08-03T12:20:47;45.50;33.40
17092;DHT22;8661;45.700;4.880;2022-08-03T12:23:15;45.70;33.50
17092;DHT22;8661;45.700;4.880;2022-08-03T12:25:43;46.20;33.10
17092;DHT22;8661;45.700;4.880;2022-08-03T12:28:13;45.90;33.00
17092;DHT22;8661;45.700;4.880;2022-08-03T12:30:46;45.70;32.90
17092;DHT22;8661;45.700;4.880;2022-08-03T12:33:18;45.60;32.60
17092;DHT22;8661;45.700;4.880;2022-08-03T12:35:47;45.90;32.60
17092;DHT22;8661;45.700;4.880;2022-08-03T12:38:19;46.20;33.40
17092;DHT22;8661;45.700;4.880;2022-08-03T12:40:55;46.40;32.50
17092;DHT22;8661;45.700;4.880;2022-08-03T12:43:22;46.70;32.30
17092;DHT22;8661;45.700;4.880;2022-08-03T12:45:50;47.10;32.20
17092;DHT22;8661;45.700;4.880;2022-08-03T12:48:17;47.40;32.30
17092;DHT22;8661;45.700;4.880;2022-08-03T12:50:44;46.90;32.50
17092;DHT22;8661;45.700;4.880;2022-08-03T12:53:11;46.90;32.90
17092;DHT22;8661;45.700;4.880;2022-08-03T12:55:38;47.20;32.30
17092;DHT22;8661;45.700;4.880;2022-08-03T12:58:07;46.80;32.00
17092;DHT22;8661;45.700;4.880;2022-08-03T13:00:37;46.90;32.40
17092;DHT22;8661;45.700;4.880;2022-08-03T13:03:06;46.60;32.40
17092;DHT22;8661;45.700;4.880;2022-08-03T13:05:42;46.80;32.20
17092;DHT22;8661;45.700;4.880;2022-08-03T13:08:17;46.90;32.10
17092;DHT22;8661;45.700;4.880;2022-08-03T13:10:44;47.10;32.00
17092;DHT22;8661;45.700;4.880;2022-08-03T13:13:11;47.10;32.20
17092;DHT22;8661;45.700;4.880;2022-08-03T13:15:38;47.40;32.00
17092;DHT22;8661;45.700;4.880;2022-08-03T13:18:07;47.40;31.60
17092;DHT22;8661;45.700;4.880;2022-08-03T13:20:35;46.80;32.10
17092;DHT22;8661;45.700;4.880;2022-08-03T13:23:02;46.40;32.20
17092;DHT22;8661;45.700;4.880;2022-08-03T13:25:29;45.90;32.50
17092;DHT22;8661;45.700;4.880;2022-08-03T13:27:56;46.40;32.50
17092;DHT22;8661;45.700;4.880;2022-08-03T13:30:25;46.70;32.00
17092;DHT22;8661;45.700;4.880;2022-08-03T13:32:52;46.90;32.20
17092;DHT22;8661;45.700;4.880;2022-08-03T13:35:21;47.10;31.70
17092;DHT22;8661;45.700;4.880;2022-08-03T13:37:48;46.80;31.60
17092;DHT22;8661;45.700;4.880;2022-08-03T13:40:14;46.80;31.80
17092;DHT22;8661;45.700;4.880;2022-08-03T13:42:41;46.70;31.90
17092;DHT22;8661;45.700;4.880;2022-08-03T13:45:08;46.60;32.30
17092;DHT22;8661;45.700;4.880;2022-08-03T13:47:36;46.80;32.40
17092;DHT22;8661;45.700;4.880;2022-08-03T13:50:03;46.80;32.20
17092;DHT22;8661;45.700;4.880;2022-08-03T13:52:33;46.70;32.40
17092;DHT22;8661;45.700;4.880;2022-08-03T13:55:00;46.10;32.50
17092;DHT22;8661;45.700;4.880;2022-08-03T13:57:28;46.00;32.50
17092;DHT22;8661;45.700;4.880;2022-08-03T13:59:55;46.20;32.50
17092;DHT22;8661;45.700;4.880;2022-08-03T14:02:22;46.10;32.40
17092;DHT22;8661;45.700;4.880;2022-08-03T14:04:49;46.50;32.10
17092;DHT22;8661;45.700;4.880;2022-08-03T14:07:15;46.30;32.00
17092;DHT22;8661;45.700;4.880;2022-08-03T14:09:44;46.40;32.10
17092;DHT22;8661;45.700;4.880;2022-08-03T14:12:11;46.40;32.20
17092;DHT22;8661;45.700;4.880;2022-08-03T14:14:38;47.00;31.60
17092;DHT22;8661;45.700;4.880;2022-08-03T14:17:05;47.30;31.00
17092;DHT22;8661;45.700;4.880;2022-08-03T14:19:32;47.60;30.90
17092;DHT22;8661;45.700;4.880;2022-08-03T14:21:58;47.90;30.90
17092;DHT22;8661;45.700;4.880;2022-08-03T14:24:25;48.40;30.70
17092;DHT22;8661;45.700;4.880;2022-08-03T14:26:54;48.40;30.40
17092;DHT22;8661;45.700;4.880;2022-08-03T14:29:22;48.70;30.40
17092;DHT22;8661;45.700;4.880;2022-08-03T14:31:49;48.70;30.30
17092;DHT22;8661;45.700;4.880;2022-08-03T14:34:16;48.40;30.80
17092;DHT22;8661;45.700;4.880;2022-08-03T14:36:42;48.40;30.80
17092;DHT22;8661;45.700;4.880;2022-08-03T14:39:11;47.70;30.90
17092;DHT22;8661;45.700;4.880;2022-08-03T14:41:39;47.00;31.10
17092;DHT22;8661;45.700;4.880;2022-08-03T14:44:07;47.10;31.60
17092;DHT22;8661;45.700;4.880;2022-08-03T14:46:34;46.90;31.70
17092;DHT22;8661;45.700;4.880;2022-08-03T14:49:01;47.00;31.90
17092;DHT22;8661;45.700;4.880;2022-08-03T14:51:29;47.00;31.80
17092;DHT22;8661;45.700;4.880;2022-08-03T14:53:56;46.70;31.60
17092;DHT22;8661;45.700;4.880;2022-08-03T14:56:23;46.30;31.90
17092;DHT22;8661;45.700;4.880;2022-08-03T14:58:50;45.60;32.20
17092;DHT22;8661;45.700;4.880;2022-08-03T15:01:18;44.90;32.80
17092;DHT22;8661;45.700;4.880;2022-08-03T15:03:45;44.20;33.20
17092;DHT22;8661;45.700;4.880;2022-08-03T15:06:13;43.60;33.70
17092;DHT22;8661;45.700;4.880;2022-08-03T15:08:40;43.60;33.80
17092;DHT22;8661;45.700;4.880;2022-08-03T15:11:07;43.60;33.80
17092;DHT22;8661;45.700;4.880;2022-08-03T15:13:34;43.10;34.30
17092;DHT22;8661;45.700;4.880;2022-08-03T15:16:01;43.10;34.60
17092;DHT22;8661;45.700;4.880;2022-08-03T15:18:29;42.90;34.70
17092;DHT22;8661;45.700;4.880;2022-08-03T15:20:56;42.60;35.00
17092;DHT22;8661;45.700;4.880;2022-08-03T15:23:23;42.30;35.20
17092;DHT22;8661;45.700;4.880;2022-08-03T15:25:52;42.30;35.60
17092;DHT22;8661;45.700;4.880;2022-08-03T15:28:19;42.40;35.30
17092;DHT22;8661;45.700;4.880;2022-08-03T15:30:46;42.40;35.60
17092;DHT22;8661;45.700;4.880;2022-08-03T15:33:12;42.30;35.90
17092;DHT22;8661;45.700;4.880;2022-08-03T15:35:41;42.10;35.80
17092;DHT22;8661;45.700;4.880;2022-08-03T15:38:08;41.90;36.10
17092;DHT22;8661;45.700;4.880;2022-08-03T15:40:35;41.20;36.70
17092;DHT22;8661;45.700;4.880;2022-08-03T15:43:02;40.60;37.20
17092;DHT22;8661;45.700;4.880;2022-08-03T15:45:29;40.20;37.70
17092;DHT22;8661;45.700;4.880;2022-08-03T15:47:56;40.10;37.80
17092;DHT22;8661;45.700;4.880;2022-08-03T15:50:23;39.80;38.00
17092;DHT22;8661;45.700;4.880;2022-08-03T15:52:51;39.80;38.00
17092;DHT22;8661;45.700;4.880;2022-08-03T15:55:18;39.70;38.10
17092;DHT22;8661;45.700;4.880;2022-08-03T15:57:45;39.50;38.30
17092;DHT22;8661;45.700;4.880;2022-08-03T16:00:13;39.40;38.90